Hlavní strana
METAR-TAF:

METAR-TAF

Letiště :

Ohio State University Airport

Columbus, Ohio, Spojené státy americké

zeměpisná šířka: 40-04-41N, zeměpisná délka: 083-04-41W, výška: 275 m

Aktuální stav počasí

Zpráva byla vytvořena před 35 minutami, v 10:24 UTC
Severozápadní vítr 3 kt
Teplota -1°C
Vlhkost vzduchu 86%
Tlak 1024 hPa
Viditelnost: 16.1 km
Polojasno ve výšce 2600 ft

METAR: KOSU 251024Z AUTO 32003KT 10SM SCT026 M01/M03 A3024 RMK AO2 T10111028

Čas: 05:59 (10:59 UTC)


TAF: chybějící

Stav a předpovědi počasí z více než 4 000 letišť (zprávy METAR a TAF).

Červené a žluté tečky na mapě představují dostupné meteorologické stanice.

Když kurzor umístíte na tečku, zobrazí se název stanice.

Pak kliknutím zobrazíte stav a předpověď počasí.

Chcete-li změnit mapu, kliknutím na zelené tlačítko se znaménkem +mapu přiblížíte, kliknutím na zelené tlačítko se znaménkem – mapu oddálíte a kliknutím na zelené šipky přejdete na sousední mapy.


METAR-TAF: